Terminal Aerodrome Forecast
Issued by NWS

Home | Current Version | Previous Version | Text Only | Print | Product List | Glossary On
Versions: 1 2 3 4 5 6 7 8 9 10 11 12
026
FTUS45 KVEF 061121
TAFHND
TAF
KHND 061121Z 0612/0712 18006KT P6SM BKN200
     FM061900 01006KT P6SM SCT250
     FM062300 21010G16KT P6SM SCT250
     FM070600 36012G20KT P6SM SCT250=

USA.gov is the U.S. government's official web portal to all federal, state and local government web resources and services.